Poseidon — WDG3989 — position and weather

sailwx.info

Track history (hours):
 
Tides and Currents Weather Stations Pressure Air Temp Water Temp Dewpoint Dewpoint Depression Visibility Wind Speed Wind Dir Waves Ship Positions

Poseidon

Owner: Deloach Marine Services, LLC, Port Allen, LA. More information available from US FCC via Universal Licensing System and Coast Guard Vessel Documentation Center.

Last reported at 2018-Jun-21 00:30 UTC. Time now 2018-Jun-21 00:56 UTC.
Position N 29°49' W 092°17'.

Length 24 m; draft 2.7 m.

Type: Towing. MMSI: 367531780.

Date/timePositionNaut miles runAvg speedWind from/ knotsBaromVisibWave heightAir tempDewpointWater temp
2018-Jun-21 00:30N 29°49' W 092°17'2 4.1
2018-Jun-21 00:00N 29°50' W 092°18'2 4.5
2018-Jun-20 23:30N 29°51' W 092°21'2 3.7
2018-Jun-20 22:59N 29°52' W 092°22'2 3.9
2018-Jun-20 22:30N 29°53' W 092°24'2 3.0
2018-Jun-20 21:58N 29°53' W 092°26'35 4.0
2018-Jun-20 13:12N 29°56' W 093°06'1 4.2
2018-Jun-20 13:00N 29°56' W 093°07'2 4.1
2018-Jun-20 12:30N 29°56' W 093°09'1 2.7
2018-Jun-20 12:00N 29°57' W 093°11'2 4.3
2018-Jun-20 11:30N 29°59' W 093°12'2 4.2
2018-Jun-20 11:00N 30°00' W 093°14'2 3.7
2018-Jun-20 10:30N 30°02' W 093°15'1 3.0
2018-Jun-20 10:00N 30°03' W 093°16'2 3.2
2018-Jun-20 09:30N 30°05' W 093°17'1 2.3
2018-Jun-20 09:00N 30°05' W 093°18'1 1.4
2018-Jun-20 08:30N 30°06' W 093°18'0 0.5
2018-Jun-20 07:58N 30°06' W 093°18'0 0.0
2018-Jun-20 07:30N 30°06' W 093°18'0 0.0
2018-Jun-20 07:00N 30°06' W 093°18'0 0.1
2018-Jun-20 06:30N 30°06' W 093°18'0 0.0
2018-Jun-20 06:00N 30°06' W 093°18'0 0.0
2018-Jun-20 05:30N 30°06' W 093°18'0 0.1
2018-Jun-20 05:00N 30°06' W 093°18'0 0.0
2018-Jun-20 04:30N 30°06' W 093°18'0 0.0
2018-Jun-20 04:00N 30°06' W 093°18'0 0.0
2018-Jun-20 03:30N 30°06' W 093°18'0 0.0
2018-Jun-20 03:00N 30°06' W 093°18'0 0.0
2018-Jun-20 02:30N 30°06' W 093°18'0 0.0
2018-Jun-20 02:00N 30°06' W 093°18'0 0.0
2018-Jun-20 01:30N 30°06' W 093°18'0 0.0
2018-Jun-20 01:00N 30°06' W 093°18'1 1.2
2018-Jun-20 00:30N 30°06' W 093°19'0 0.1
2018-Jun-19 23:58N 30°06' W 093°19'0 0.0
2018-Jun-19 23:28N 30°06' W 093°19'0 0.1
2018-Jun-19 23:00N 30°06' W 093°19'0 0.1
2018-Jun-19 22:30N 30°06' W 093°19'0 0.6
2018-Jun-19 22:00N 30°06' W 093°19'0 0.1
2018-Jun-19 21:30N 30°06' W 093°19'1 1.9
2018-Jun-19 21:00N 30°05' W 093°20'2 3.3
2018-Jun-19 20:30N 30°04' W 093°21'0 0.7
2018-Jun-19 20:00N 30°04' W 093°22'0 0.0
2018-Jun-19 19:30N 30°04' W 093°22'0 0.0
2018-Jun-19 19:00N 30°04' W 093°22'0 0.0
2018-Jun-19 18:30N 30°04' W 093°22'0 0.9
2018-Jun-19 18:00N 30°04' W 093°22'2 4.8
2018-Jun-19 17:30N 30°04' W 093°25'3 5.3
2018-Jun-19 17:00N 30°04' W 093°28'3 5.4
2018-Jun-19 16:30N 30°04' W 093°31'3 5.6
2018-Jun-19 16:00N 30°04' W 093°34'3 5.5
2018-Jun-19 15:30N 30°04' W 093°37'3 5.5
2018-Jun-19 15:00N 30°04' W 093°41'2 4.9
2018-Jun-19 14:30N 30°03' W 093°43'2 4.7
2018-Jun-19 14:00N 30°01' W 093°45'2 4.6
2018-Jun-19 13:30N 29°60' W 093°47'3 6.4
2018-Jun-19 13:00N 29°58' W 093°50'3 5.2
2018-Jun-19 12:30N 29°56' W 093°52'2 4.9
2018-Jun-19 12:00N 29°54' W 093°54'2 4.6
2018-Jun-19 11:30N 29°53' W 093°55'2 4.9
2018-Jun-19 11:00N 29°51' W 093°57'2 4.9
2018-Jun-19 10:30N 29°49' W 093°59'2 4.0
2018-Jun-19 10:00N 29°48' W 094°01'2 4.1
2018-Jun-19 09:30N 29°46' W 094°03'2 4.2
2018-Jun-19 09:00N 29°45' W 094°04'2 4.3
2018-Jun-19 08:30N 29°44' W 094°06'2 4.3
2018-Jun-19 08:00N 29°42' W 094°08'2 4.2
2018-Jun-19 07:30N 29°41' W 094°10'2 4.2
2018-Jun-19 07:00N 29°41' W 094°13'2 4.0
2018-Jun-19 06:30N 29°40' W 094°15'2 4.1
2018-Jun-19 06:00N 29°39' W 094°17'2 3.8
2018-Jun-19 05:30N 29°38' W 094°19'2 4.0
2018-Jun-19 05:00N 29°37' W 094°21'2 4.0
2018-Jun-19 04:30N 29°36' W 094°23'2 3.5
2018-Jun-19 04:00N 29°36' W 094°25'1 1.5
2018-Jun-19 03:30N 29°35' W 094°25'0 0.0
2018-Jun-19 03:00N 29°35' W 094°25'0 0.0
2018-Jun-19 02:30N 29°35' W 094°25'2 3.0
2018-Jun-19 01:59N 29°34' W 094°26'2 3.8
2018-Jun-19 01:30N 29°33' W 094°28'8 4.1
2018-Jun-18 23:31N 29°29' W 094°36'1 5.0
2018-Jun-18 23:25N 29°29' W 094°37'2 5.1
2018-Jun-18 22:58N 29°28' W 094°39'4 4.9
2018-Jun-18 22:07N 29°26' W 094°43'0 0.1
2018-Jun-18 21:57N 29°26' W 094°43'0 0.0
2018-Jun-18 21:30N 29°26' W 094°43'0 0.2
2018-Jun-18 20:50N 29°26' W 094°43'0 0.3
2018-Jun-18 20:22N 29°26' W 094°43'0 0.3
2018-Jun-18 19:53N 29°26' W 094°43'0 0.2
2018-Jun-18 19:10N 29°26' W 094°43'0 0.1
2018-Jun-18 19:00N 29°26' W 094°43'0 0.1
2018-Jun-18 18:30N 29°26' W 094°43'4 3.7
2018-Jun-18 17:33N 29°23' W 094°46'1 7.1
2018-Jun-18 17:24N 29°22' W 094°47'2 5.7
2018-Jun-18 17:00N 29°24' W 094°49'4 7.4
2018-Jun-18 16:30N 29°27' W 094°51'4 7.5
2018-Jun-18 16:00N 29°30' W 094°53'4 7.9
2018-Jun-18 15:30N 29°34' W 094°55'4 8.2
2018-Jun-18 14:59N 29°37' W 094°58'4 8.2
2018-Jun-18 14:30N 29°41' W 094°59'2 0.1
2018-Jun-17 23:54N 29°42' W 095°01'3 6.7
2018-Jun-17 23:27N 29°40' W 094°59'4 7.2
2018-Jun-17 22:57N 29°37' W 094°57'14 7.3
2018-Jun-17 21:04N 29°25' W 094°50'1 7.2
2018-Jun-17 20:52N 29°24' W 094°49'2 5.2
2018-Jun-17 20:30N 29°22' W 094°49'4 7.0
2018-Jun-17 20:00N 29°23' W 094°53'1 1.2
2018-Jun-17 19:30N 29°22' W 094°53'0 0.1
2018-Jun-17 19:00N 29°22' W 094°53'2 4.1
2018-Jun-17 18:29N 29°22' W 094°51'3 5.5
2018-Jun-17 18:00N 29°22' W 094°48'2 4.4
2018-Jun-17 17:30N 29°23' W 094°46'1 1.9
2018-Jun-17 17:00N 29°24' W 094°45'1 2.1
2018-Jun-17 16:29N 29°25' W 094°44'13 4.5
2018-Jun-17 13:36N 29°31' W 094°31'1 5.5
2018-Jun-17 13:24N 29°31' W 094°30'3 2.9
2018-Jun-17 12:16N 29°34' W 094°27'1 5.0
2018-Jun-17 12:00N 29°34' W 094°26'2 4.2
2018-Jun-17 11:29N 29°36' W 094°24'2 4.1
2018-Jun-17 10:58N 29°36' W 094°22'1 1.3
2018-Jun-17 10:30N 29°37' W 094°21'1 1.5
2018-Jun-17 09:59N 29°37' W 094°21'2 4.6
2018-Jun-17 09:30N 29°38' W 094°18'2 5.1
2018-Jun-17 09:00N 29°39' W 094°16'3 5.0
2018-Jun-17 08:30N 29°40' W 094°13'2 4.5
2018-Jun-17 08:00N 29°41' W 094°11'2 4.7
2018-Jun-17 07:30N 29°42' W 094°08'2 4.8
2018-Jun-17 07:00N 29°44' W 094°06'2 4.8
2018-Jun-17 06:30N 29°45' W 094°04'2 4.7
2018-Jun-17 06:00N 29°47' W 094°02'2 4.3
2018-Jun-17 05:30N 29°48' W 094°00'2 4.4
2018-Jun-17 05:00N 29°49' W 093°58'3 6.6
2018-Jun-17 04:30N 29°52' W 093°56'3 6.1
2018-Jun-17 04:00N 29°54' W 093°54'4 7.3
2018-Jun-17 03:30N 29°58' W 093°52'3 5.6
2018-Jun-17 03:00N 29°59' W 093°49'3 5.8
2018-Jun-17 02:29N 30°01' W 093°46'2 4.9
2018-Jun-17 02:00N 30°03' W 093°44'3 5.1
2018-Jun-17 01:29N 30°04' W 093°41'2 4.8
2018-Jun-17 01:00N 30°04' W 093°39'2 4.8
2018-Jun-17 00:30N 30°04' W 093°36'3 5.0
2018-Jun-17 00:00N 30°04' W 093°33'3 5.1
2018-Jun-16 23:29N 30°04' W 093°30'2 5.0
2018-Jun-16 23:00N 30°04' W 093°27'2 5.0
2018-Jun-16 22:30N 30°04' W 093°24'2 4.2
2018-Jun-16 21:59N 30°04' W 093°22'2 3.6
2018-Jun-16 21:30N 30°05' W 093°20'2 3.6
2018-Jun-16 21:00N 30°06' W 093°19'1 2.4
2018-Jun-16 20:30N 30°05' W 093°18'0 0.9
2018-Jun-16 20:00N 30°05' W 093°17'1 2.1
2018-Jun-16 19:30N 30°04' W 093°16'0 0.7
2018-Jun-16 19:00N 30°04' W 093°16'0 0.2
2018-Jun-16 18:30N 30°04' W 093°16'1 1.1
2018-Jun-16 18:00N 30°04' W 093°16'1 2.1
2018-Jun-16 17:30N 30°03' W 093°16'1 1.2
2018-Jun-16 17:00N 30°02' W 093°15'0 0.0
2018-Jun-16 16:30N 30°02' W 093°15'0 0.8
2018-Jun-16 16:00N 30°02' W 093°15'0 0.3
2018-Jun-16 15:30N 30°02' W 093°15'0 0.0
2018-Jun-16 15:00N 30°02' W 093°15'0 0.0
2018-Jun-16 14:30N 30°02' W 093°15'0 0.0
2018-Jun-16 14:00N 30°02' W 093°15'0 0.0
2018-Jun-16 13:30N 30°02' W 093°15'0 0.0
2018-Jun-16 13:00N 30°02' W 093°15'1 1.6
2018-Jun-16 12:30N 30°01' W 093°14'2 3.8
2018-Jun-16 12:00N 29°60' W 093°13'1 3.0
2018-Jun-16 11:30N 29°58' W 093°12'1 2.0
2018-Jun-16 11:00N 29°58' W 093°11'0 0.2
2018-Jun-16 10:30N 29°58' W 093°11'0 0.5
2018-Jun-16 10:00N 29°57' W 093°11'0 0.0
2018-Jun-16 09:30N 29°57' W 093°11'0 0.1
2018-Jun-16 09:00N 29°58' W 093°11'0 0.1
2018-Jun-16 08:30N 29°58' W 093°11'0 0.0
2018-Jun-16 08:00N 29°58' W 093°11'0 0.0
2018-Jun-16 07:30N 29°58' W 093°11'0 0.2
2018-Jun-16 07:00N 29°57' W 093°11'0 0.0
2018-Jun-16 06:30N 29°57' W 093°11'0 0.0
2018-Jun-16 06:00N 29°57' W 093°11'0 0.0
2018-Jun-16 05:30N 29°57' W 093°11'0 0.7
2018-Jun-16 05:00N 29°57' W 093°11'0 0.0
2018-Jun-16 04:30N 29°57' W 093°10'0 0.0
2018-Jun-16 04:00N 29°57' W 093°10'0 0.0
2018-Jun-16 03:30N 29°57' W 093°10'0 0.0
2018-Jun-16 02:59N 29°57' W 093°10'0 0.1
2018-Jun-16 02:30N 29°57' W 093°10'1 2.6
2018-Jun-16 02:00N 29°56' W 093°10'2 3.9
2018-Jun-16 01:30N 29°56' W 093°07'2 3.8
2018-Jun-16 01:00N 29°56' W 093°05'2 4.0
2018-Jun-16 00:30N 29°56' W 093°03'3 3.3
2018-Jun-15 23:44N 29°56' W 092°60'29 1.8
2018-Jun-15 08:04N 29°54' W 092°27'0 4.1
2018-Jun-15 08:00N 29°53' W 092°27'2 3.8
2018-Jun-15 07:30N 29°53' W 092°25'2 3.6
2018-Jun-15 07:00N 29°52' W 092°23'2 3.5
2018-Jun-15 06:30N 29°51' W 092°22'2 3.6
2018-Jun-15 06:00N 29°50' W 092°19'2 3.7
2018-Jun-15 05:30N 29°50' W 092°18'2 3.7
2018-Jun-15 05:00N 29°48' W 092°16'2 4.3
2018-Jun-15 04:31N 29°48' W 092°14'1 2.7
2018-Jun-15 04:01N 29°47' W 092°12'1 2.4
2018-Jun-15 03:30N 29°47' W 092°11'0 0.0
2018-Jun-15 03:00N 29°47' W 092°11'0 0.1
2018-Jun-15 02:30N 29°47' W 092°11'1 1.6
2018-Jun-15 02:01N 29°47' W 092°10'2 4.5
2018-Jun-15 01:30N 29°47' W 092°07'2 4.6
2018-Jun-15 01:00N 29°48' W 092°05'2 4.5
2018-Jun-15 00:30N 29°49' W 092°03'2 4.3
2018-Jun-15 00:00N 29°50' W 092°00'2 4.0
2018-Jun-14 23:30N 29°50' W 091°58'2 4.5
2018-Jun-14 23:00N 29°51' W 091°55'  
2018-Jun-11 06:52N 29°49' W 091°50'3 3.0
2018-Jun-11 05:45N 29°51' W 091°53'1 4.3
2018-Jun-11 05:30N 29°51' W 091°54'2 4.3
2018-Jun-11 05:00N 29°51' W 091°57'2 4.1
2018-Jun-11 04:30N 29°50' W 091°59'2 4.4
2018-Jun-11 04:00N 29°49' W 092°01'2 4.2
2018-Jun-11 03:30N 29°49' W 092°04'2 4.0
2018-Jun-11 03:00N 29°48' W 092°06'2 4.0
2018-Jun-11 02:30N 29°47' W 092°08'2 4.2
2018-Jun-11 02:00N 29°47' W 092°10'2 3.8
2018-Jun-11 01:30N 29°47' W 092°12'0 0.7
2018-Jun-11 01:00N 29°47' W 092°13'  
Track history (hours):
 
Tides and Currents Weather Stations Pressure Air Temp Water Temp Dewpoint Dewpoint Depression Visibility Wind Speed Wind Dir Waves Ship Positions

Poseidon

Owner: Deloach Marine Services, LLC, Port Allen, LA. More information available from US FCC via Universal Licensing System and Coast Guard Vessel Documentation Center.

Last reported at 2018-Jun-21 00:30 UTC. Time now 2018-Jun-21 00:56 UTC.
Position N 29°49' W 092°17'.

Length 24 m; draft 2.7 m.

Type: Towing. MMSI: 367531780.

Date/timePositionNaut miles runAvg speedWind from/ knotsBaromVisibWave heightAir tempDewpointWater temp
2018-Jun-21 00:30N 29°49' W 092°17'2 4.1
2018-Jun-21 00:00N 29°50' W 092°18'2 4.5
2018-Jun-20 23:30N 29°51' W 092°21'2 3.7
2018-Jun-20 22:59N 29°52' W 092°22'2 3.9
2018-Jun-20 22:30N 29°53' W 092°24'2 3.0
2018-Jun-20 21:58N 29°53' W 092°26'35 4.0
2018-Jun-20 13:12N 29°56' W 093°06'1 4.2
2018-Jun-20 13:00N 29°56' W 093°07'2 4.1
2018-Jun-20 12:30N 29°56' W 093°09'1 2.7
2018-Jun-20 12:00N 29°57' W 093°11'2 4.3
2018-Jun-20 11:30N 29°59' W 093°12'2 4.2
2018-Jun-20 11:00N 30°00' W 093°14'2 3.7
2018-Jun-20 10:30N 30°02' W 093°15'1 3.0
2018-Jun-20 10:00N 30°03' W 093°16'2 3.2
2018-Jun-20 09:30N 30°05' W 093°17'1 2.3
2018-Jun-20 09:00N 30°05' W 093°18'1 1.4
2018-Jun-20 08:30N 30°06' W 093°18'0 0.5
2018-Jun-20 07:58N 30°06' W 093°18'0 0.0
2018-Jun-20 07:30N 30°06' W 093°18'0 0.0
2018-Jun-20 07:00N 30°06' W 093°18'0 0.1
2018-Jun-20 06:30N 30°06' W 093°18'0 0.0
2018-Jun-20 06:00N 30°06' W 093°18'0 0.0
2018-Jun-20 05:30N 30°06' W 093°18'0 0.1
2018-Jun-20 05:00N 30°06' W 093°18'0 0.0
2018-Jun-20 04:30N 30°06' W 093°18'0 0.0
2018-Jun-20 04:00N 30°06' W 093°18'0 0.0
2018-Jun-20 03:30N 30°06' W 093°18'0 0.0
2018-Jun-20 03:00N 30°06' W 093°18'0 0.0
2018-Jun-20 02:30N 30°06' W 093°18'0 0.0
2018-Jun-20 02:00N 30°06' W 093°18'0 0.0
2018-Jun-20 01:30N 30°06' W 093°18'0 0.0
2018-Jun-20 01:00N 30°06' W 093°18'1 1.2
2018-Jun-20 00:30N 30°06' W 093°19'0 0.1
2018-Jun-19 23:58N 30°06' W 093°19'0 0.0
2018-Jun-19 23:28N 30°06' W 093°19'0 0.1
2018-Jun-19 23:00N 30°06' W 093°19'0 0.1
2018-Jun-19 22:30N 30°06' W 093°19'0 0.6
2018-Jun-19 22:00N 30°06' W 093°19'0 0.1
2018-Jun-19 21:30N 30°06' W 093°19'1 1.9
2018-Jun-19 21:00N 30°05' W 093°20'2 3.3
2018-Jun-19 20:30N 30°04' W 093°21'0 0.7
2018-Jun-19 20:00N 30°04' W 093°22'0 0.0
2018-Jun-19 19:30N 30°04' W 093°22'0 0.0
2018-Jun-19 19:00N 30°04' W 093°22'0 0.0
2018-Jun-19 18:30N 30°04' W 093°22'0 0.9
2018-Jun-19 18:00N 30°04' W 093°22'2 4.8
2018-Jun-19 17:30N 30°04' W 093°25'3 5.3
2018-Jun-19 17:00N 30°04' W 093°28'3 5.4
2018-Jun-19 16:30N 30°04' W 093°31'3 5.6
2018-Jun-19 16:00N 30°04' W 093°34'3 5.5
2018-Jun-19 15:30N 30°04' W 093°37'3 5.5
2018-Jun-19 15:00N 30°04' W 093°41'2 4.9
2018-Jun-19 14:30N 30°03' W 093°43'2 4.7
2018-Jun-19 14:00N 30°01' W 093°45'2 4.6
2018-Jun-19 13:30N 29°60' W 093°47'3 6.4
2018-Jun-19 13:00N 29°58' W 093°50'3 5.2
2018-Jun-19 12:30N 29°56' W 093°52'2 4.9
2018-Jun-19 12:00N 29°54' W 093°54'2 4.6
2018-Jun-19 11:30N 29°53' W 093°55'2 4.9
2018-Jun-19 11:00N 29°51' W 093°57'2 4.9
2018-Jun-19 10:30N 29°49' W 093°59'2 4.0
2018-Jun-19 10:00N 29°48' W 094°01'2 4.1
2018-Jun-19 09:30N 29°46' W 094°03'2 4.2
2018-Jun-19 09:00N 29°45' W 094°04'2 4.3
2018-Jun-19 08:30N 29°44' W 094°06'2 4.3
2018-Jun-19 08:00N 29°42' W 094°08'2 4.2
2018-Jun-19 07:30N 29°41' W 094°10'2 4.2
2018-Jun-19 07:00N 29°41' W 094°13'2 4.0
2018-Jun-19 06:30N 29°40' W 094°15'2 4.1
2018-Jun-19 06:00N 29°39' W 094°17'2 3.8
2018-Jun-19 05:30N 29°38' W 094°19'2 4.0
2018-Jun-19 05:00N 29°37' W 094°21'2 4.0
2018-Jun-19 04:30N 29°36' W 094°23'2 3.5
2018-Jun-19 04:00N 29°36' W 094°25'1 1.5
2018-Jun-19 03:30N 29°35' W 094°25'0 0.0
2018-Jun-19 03:00N 29°35' W 094°25'0 0.0
2018-Jun-19 02:30N 29°35' W 094°25'2 3.0
2018-Jun-19 01:59N 29°34' W 094°26'2 3.8
2018-Jun-19 01:30N 29°33' W 094°28'8 4.1
2018-Jun-18 23:31N 29°29' W 094°36'1 5.0
2018-Jun-18 23:25N 29°29' W 094°37'2 5.1
2018-Jun-18 22:58N 29°28' W 094°39'4 4.9
2018-Jun-18 22:07N 29°26' W 094°43'0 0.1
2018-Jun-18 21:57N 29°26' W 094°43'0 0.0
2018-Jun-18 21:30N 29°26' W 094°43'0 0.2
2018-Jun-18 20:50N 29°26' W 094°43'0 0.3
2018-Jun-18 20:22N 29°26' W 094°43'0 0.3
2018-Jun-18 19:53N 29°26' W 094°43'0 0.2
2018-Jun-18 19:10N 29°26' W 094°43'0 0.1
2018-Jun-18 19:00N 29°26' W 094°43'0 0.1
2018-Jun-18 18:30N 29°26' W 094°43'4 3.7
2018-Jun-18 17:33N 29°23' W 094°46'1 7.1
2018-Jun-18 17:24N 29°22' W 094°47'2 5.7
2018-Jun-18 17:00N 29°24' W 094°49'4 7.4
2018-Jun-18 16:30N 29°27' W 094°51'4 7.5
2018-Jun-18 16:00N 29°30' W 094°53'4 7.9
2018-Jun-18 15:30N 29°34' W 094°55'4 8.2
2018-Jun-18 14:59N 29°37' W 094°58'4 8.2
2018-Jun-18 14:30N 29°41' W 094°59'2 0.1
2018-Jun-17 23:54N 29°42' W 095°01'3 6.7
2018-Jun-17 23:27N 29°40' W 094°59'4 7.2
2018-Jun-17 22:57N 29°37' W 094°57'14 7.3
2018-Jun-17 21:04N 29°25' W 094°50'1 7.2
2018-Jun-17 20:52N 29°24' W 094°49'2 5.2
2018-Jun-17 20:30N 29°22' W 094°49'4 7.0
2018-Jun-17 20:00N 29°23' W 094°53'1 1.2
2018-Jun-17 19:30N 29°22' W 094°53'0 0.1
2018-Jun-17 19:00N 29°22' W 094°53'2 4.1
2018-Jun-17 18:29N 29°22' W 094°51'3 5.5
2018-Jun-17 18:00N 29°22' W 094°48'2 4.4
2018-Jun-17 17:30N 29°23' W 094°46'1 1.9
2018-Jun-17 17:00N 29°24' W 094°45'1 2.1
2018-Jun-17 16:29N 29°25' W 094°44'13 4.5
2018-Jun-17 13:36N 29°31' W 094°31'1 5.5
2018-Jun-17 13:24N 29°31' W 094°30'3 2.9
2018-Jun-17 12:16N 29°34' W 094°27'1 5.0
2018-Jun-17 12:00N 29°34' W 094°26'2 4.2
2018-Jun-17 11:29N 29°36' W 094°24'2 4.1
2018-Jun-17 10:58N 29°36' W 094°22'1 1.3
2018-Jun-17 10:30N 29°37' W 094°21'1 1.5
2018-Jun-17 09:59N 29°37' W 094°21'2 4.6
2018-Jun-17 09:30N 29°38' W 094°18'2 5.1
2018-Jun-17 09:00N 29°39' W 094°16'3 5.0
2018-Jun-17 08:30N 29°40' W 094°13'2 4.5
2018-Jun-17 08:00N 29°41' W 094°11'2 4.7
2018-Jun-17 07:30N 29°42' W 094°08'2 4.8
2018-Jun-17 07:00N 29°44' W 094°06'2 4.8
2018-Jun-17 06:30N 29°45' W 094°04'2 4.7
2018-Jun-17 06:00N 29°47' W 094°02'2 4.3
2018-Jun-17 05:30N 29°48' W 094°00'2 4.4
2018-Jun-17 05:00N 29°49' W 093°58'3 6.6
2018-Jun-17 04:30N 29°52' W 093°56'3 6.1
2018-Jun-17 04:00N 29°54' W 093°54'4 7.3
2018-Jun-17 03:30N 29°58' W 093°52'3 5.6
2018-Jun-17 03:00N 29°59' W 093°49'3 5.8
2018-Jun-17 02:29N 30°01' W 093°46'2 4.9
2018-Jun-17 02:00N 30°03' W 093°44'3 5.1
2018-Jun-17 01:29N 30°04' W 093°41'2 4.8
2018-Jun-17 01:00N 30°04' W 093°39'2 4.8
2018-Jun-17 00:30N 30°04' W 093°36'3 5.0
2018-Jun-17 00:00N 30°04' W 093°33'3 5.1
2018-Jun-16 23:29N 30°04' W 093°30'2 5.0
2018-Jun-16 23:00N 30°04' W 093°27'2 5.0
2018-Jun-16 22:30N 30°04' W 093°24'2 4.2
2018-Jun-16 21:59N 30°04' W 093°22'2 3.6
2018-Jun-16 21:30N 30°05' W 093°20'2 3.6
2018-Jun-16 21:00N 30°06' W 093°19'1 2.4
2018-Jun-16 20:30N 30°05' W 093°18'0 0.9
2018-Jun-16 20:00N 30°05' W 093°17'1 2.1
2018-Jun-16 19:30N 30°04' W 093°16'0 0.7
2018-Jun-16 19:00N 30°04' W 093°16'0 0.2
2018-Jun-16 18:30N 30°04' W 093°16'1 1.1
2018-Jun-16 18:00N 30°04' W 093°16'1 2.1
2018-Jun-16 17:30N 30°03' W 093°16'1 1.2
2018-Jun-16 17:00N 30°02' W 093°15'0 0.0
2018-Jun-16 16:30N 30°02' W 093°15'0 0.8
2018-Jun-16 16:00N 30°02' W 093°15'0 0.3
2018-Jun-16 15:30N 30°02' W 093°15'0 0.0
2018-Jun-16 15:00N 30°02' W 093°15'0 0.0
2018-Jun-16 14:30N 30°02' W 093°15'0 0.0
2018-Jun-16 14:00N 30°02' W 093°15'0 0.0
2018-Jun-16 13:30N 30°02' W 093°15'0 0.0
2018-Jun-16 13:00N 30°02' W 093°15'1 1.6
2018-Jun-16 12:30N 30°01' W 093°14'2 3.8
2018-Jun-16 12:00N 29°60' W 093°13'1 3.0
2018-Jun-16 11:30N 29°58' W 093°12'1 2.0
2018-Jun-16 11:00N 29°58' W 093°11'0 0.2
2018-Jun-16 10:30N 29°58' W 093°11'0 0.5
2018-Jun-16 10:00N 29°57' W 093°11'0 0.0
2018-Jun-16 09:30N 29°57' W 093°11'0 0.1
2018-Jun-16 09:00N 29°58' W 093°11'0 0.1
2018-Jun-16 08:30N 29°58' W 093°11'0 0.0
2018-Jun-16 08:00N 29°58' W 093°11'0 0.0
2018-Jun-16 07:30N 29°58' W 093°11'0 0.2
2018-Jun-16 07:00N 29°57' W 093°11'0 0.0
2018-Jun-16 06:30N 29°57' W 093°11'0 0.0
2018-Jun-16 06:00N 29°57' W 093°11'0 0.0
2018-Jun-16 05:30N 29°57' W 093°11'0 0.7
2018-Jun-16 05:00N 29°57' W 093°11'0 0.0
2018-Jun-16 04:30N 29°57' W 093°10'0 0.0
2018-Jun-16 04:00N 29°57' W 093°10'0 0.0
2018-Jun-16 03:30N 29°57' W 093°10'0 0.0
2018-Jun-16 02:59N 29°57' W 093°10'0 0.1
2018-Jun-16 02:30N 29°57' W 093°10'1 2.6
2018-Jun-16 02:00N 29°56' W 093°10'2 3.9
2018-Jun-16 01:30N 29°56' W 093°07'2 3.8
2018-Jun-16 01:00N 29°56' W 093°05'2 4.0
2018-Jun-16 00:30N 29°56' W 093°03'3 3.3
2018-Jun-15 23:44N 29°56' W 092°60'29 1.8
2018-Jun-15 08:04N 29°54' W 092°27'0 4.1
2018-Jun-15 08:00N 29°53' W 092°27'2 3.8
2018-Jun-15 07:30N 29°53' W 092°25'2 3.6
2018-Jun-15 07:00N 29°52' W 092°23'2 3.5
2018-Jun-15 06:30N 29°51' W 092°22'2 3.6
2018-Jun-15 06:00N 29°50' W 092°19'2 3.7
2018-Jun-15 05:30N 29°50' W 092°18'2 3.7
2018-Jun-15 05:00N 29°48' W 092°16'2 4.3
2018-Jun-15 04:31N 29°48' W 092°14'1 2.7
2018-Jun-15 04:01N 29°47' W 092°12'1 2.4
2018-Jun-15 03:30N 29°47' W 092°11'0 0.0
2018-Jun-15 03:00N 29°47' W 092°11'0 0.1
2018-Jun-15 02:30N 29°47' W 092°11'1 1.6
2018-Jun-15 02:01N 29°47' W 092°10'2 4.5
2018-Jun-15 01:30N 29°47' W 092°07'2 4.6
2018-Jun-15 01:00N 29°48' W 092°05'2 4.5
2018-Jun-15 00:30N 29°49' W 092°03'2 4.3
2018-Jun-15 00:00N 29°50' W 092°00'2 4.0
2018-Jun-14 23:30N 29°50' W 091°58'2 4.5
2018-Jun-14 23:00N 29°51' W 091°55'  
2018-Jun-11 06:52N 29°49' W 091°50'3 3.0
2018-Jun-11 05:45N 29°51' W 091°53'1 4.3
2018-Jun-11 05:30N 29°51' W 091°54'2 4.3
2018-Jun-11 05:00N 29°51' W 091°57'2 4.1
2018-Jun-11 04:30N 29°50' W 091°59'2 4.4
2018-Jun-11 04:00N 29°49' W 092°01'2 4.2
2018-Jun-11 03:30N 29°49' W 092°04'2 4.0
2018-Jun-11 03:00N 29°48' W 092°06'2 4.0
2018-Jun-11 02:30N 29°47' W 092°08'2 4.2
2018-Jun-11 02:00N 29°47' W 092°10'2 3.8
2018-Jun-11 01:30N 29°47' W 092°12'0 0.7
2018-Jun-11 01:00N 29°47' W 092°13'  

Dump ship's entire track history